sensor_id;sensor_type;location;lat;lon;timestamp;P1;durP1;ratioP1;P2;durP2;ratioP2
73550;SDS011;61816;53.582;10.096;2022-10-29T00:01:05;32.10;;;8.63;;
73550;SDS011;61816;53.582;10.096;2022-10-29T00:03:30;44.53;;;9.73;;
73550;SDS011;61816;53.582;10.096;2022-10-29T00:05:57;27.73;;;7.47;;
73550;SDS011;61816;53.582;10.096;2022-10-29T00:08:28;41.40;;;10.13;;
73550;SDS011;61816;53.582;10.096;2022-10-29T00:10:54;32.25;;;8.68;;
73550;SDS011;61816;53.582;10.096;2022-10-29T00:13:21;36.50;;;9.27;;
73550;SDS011;61816;53.582;10.096;2022-10-29T00:15:46;36.13;;;9.13;;
73550;SDS011;61816;53.582;10.096;2022-10-29T00:18:11;39.88;;;9.77;;
73550;SDS011;61816;53.582;10.096;2022-10-29T00:20:37;40.47;;;11.48;;
73550;SDS011;61816;53.582;10.096;2022-10-29T00:23:02;35.72;;;8.88;;
73550;SDS011;61816;53.582;10.096;2022-10-29T00:25:27;39.10;;;9.23;;
73550;SDS011;61816;53.582;10.096;2022-10-29T00:27:54;28.58;;;9.18;;
73550;SDS011;61816;53.582;10.096;2022-10-29T00:30:20;43.50;;;8.63;;
73550;SDS011;61816;53.582;10.096;2022-10-29T00:32:45;30.13;;;8.30;;
73550;SDS011;61816;53.582;10.096;2022-10-29T00:35:10;34.40;;;8.85;;
73550;SDS011;61816;53.582;10.096;2022-10-29T00:37:36;47.85;;;9.82;;
73550;SDS011;61816;53.582;10.096;2022-10-29T00:40:01;38.72;;;8.70;;
73550;SDS011;61816;53.582;10.096;2022-10-29T00:42:27;39.75;;;8.23;;
73550;SDS011;61816;53.582;10.096;2022-10-29T00:44:53;40.08;;;9.52;;
73550;SDS011;61816;53.582;10.096;2022-10-29T00:47:20;43.28;;;9.95;;
73550;SDS011;61816;53.582;10.096;2022-10-29T00:49:51;47.95;;;9.77;;
73550;SDS011;61816;53.582;10.096;2022-10-29T00:52:20;41.53;;;9.73;;
73550;SDS011;61816;53.582;10.096;2022-10-29T00:54:49;46.10;;;9.10;;
73550;SDS011;61816;53.582;10.096;2022-10-29T00:57:21;50.90;;;10.70;;
73550;SDS011;61816;53.582;10.096;2022-10-29T00:59:50;39.95;;;9.20;;
73550;SDS011;61816;53.582;10.096;2022-10-29T01:02:16;40.38;;;10.15;;
73550;SDS011;61816;53.582;10.096;2022-10-29T01:04:42;41.75;;;9.50;;
73550;SDS011;61816;53.582;10.096;2022-10-29T01:07:09;34.65;;;9.32;;
73550;SDS011;61816;53.582;10.096;2022-10-29T01:09:35;35.75;;;10.05;;
73550;SDS011;61816;53.582;10.096;2022-10-29T01:20:43;38.25;;;10.43;;
73550;SDS011;61816;53.582;10.096;2022-10-29T01:32:14;39.97;;;10.02;;
73550;SDS011;61816;53.582;10.096;2022-10-29T01:40:05;45.53;;;10.52;;
73550;SDS011;61816;53.582;10.096;2022-10-29T01:42:38;38.85;;;9.38;;
73550;SDS011;61816;53.582;10.096;2022-10-29T01:45:16;47.65;;;9.95;;
73550;SDS011;61816;53.582;10.096;2022-10-29T01:47:50;35.13;;;9.18;;
73550;SDS011;61816;53.582;10.096;2022-10-29T01:50:20;41.22;;;9.35;;
73550;SDS011;61816;53.582;10.096;2022-10-29T01:52:48;43.67;;;9.77;;
73550;SDS011;61816;53.582;10.096;2022-10-29T01:55:17;48.30;;;10.13;;
73550;SDS011;61816;53.582;10.096;2022-10-29T01:57:44;49.30;;;10.43;;
73550;SDS011;61816;53.582;10.096;2022-10-29T02:00:18;38.00;;;9.95;;
73550;SDS011;61816;53.582;10.096;2022-10-29T02:05:31;50.40;;;10.70;;
73550;SDS011;61816;53.582;10.096;2022-10-29T02:13:08;54.42;;;10.95;;
73550;SDS011;61816;53.582;10.096;2022-10-29T02:15:47;56.80;;;11.45;;
73550;SDS011;61816;53.582;10.096;2022-10-29T02:18:16;46.35;;;10.07;;
73550;SDS011;61816;53.582;10.096;2022-10-29T02:20:42;47.95;;;10.40;;
73550;SDS011;61816;53.582;10.096;2022-10-29T02:23:09;45.25;;;9.70;;
73550;SDS011;61816;53.582;10.096;2022-10-29T02:25:35;41.33;;;9.65;;
73550;SDS011;61816;53.582;10.096;2022-10-29T02:28:00;53.25;;;9.20;;
73550;SDS011;61816;53.582;10.096;2022-10-29T02:30:26;48.05;;;11.65;;
73550;SDS011;61816;53.582;10.096;2022-10-29T02:32:51;54.10;;;11.02;;
73550;SDS011;61816;53.582;10.096;2022-10-29T02:35:16;51.70;;;10.70;;
73550;SDS011;61816;53.582;10.096;2022-10-29T02:37:42;46.00;;;11.55;;
73550;SDS011;61816;53.582;10.096;2022-10-29T02:40:07;48.92;;;10.90;;
73550;SDS011;61816;53.582;10.096;2022-10-29T02:42:33;53.97;;;10.15;;
73550;SDS011;61816;53.582;10.096;2022-10-29T02:44:58;61.67;;;10.30;;
73550;SDS011;61816;53.582;10.096;2022-10-29T02:47:24;49.88;;;12.55;;
73550;SDS011;61816;53.582;10.096;2022-10-29T02:49:49;55.13;;;10.35;;
73550;SDS011;61816;53.582;10.096;2022-10-29T02:52:15;57.22;;;12.07;;
73550;SDS011;61816;53.582;10.096;2022-10-29T02:54:40;51.13;;;11.68;;
73550;SDS011;61816;53.582;10.096;2022-10-29T02:57:07;46.92;;;10.38;;
73550;SDS011;61816;53.582;10.096;2022-10-29T02:59:32;39.90;;;11.70;;
73550;SDS011;61816;53.582;10.096;2022-10-29T03:01:57;59.40;;;11.48;;
73550;SDS011;61816;53.582;10.096;2022-10-29T03:04:23;54.10;;;12.82;;
73550;SDS011;61816;53.582;10.096;2022-10-29T03:06:48;59.75;;;12.68;;
73550;SDS011;61816;53.582;10.096;2022-10-29T03:09:14;61.58;;;11.30;;
73550;SDS011;61816;53.582;10.096;2022-10-29T03:11:39;36.90;;;9.55;;
73550;SDS011;61816;53.582;10.096;2022-10-29T03:14:05;65.25;;;12.13;;
73550;SDS011;61816;53.582;10.096;2022-10-29T03:16:30;49.20;;;10.40;;
73550;SDS011;61816;53.582;10.096;2022-10-29T03:18:55;51.80;;;10.32;;
73550;SDS011;61816;53.582;10.096;2022-10-29T03:21:21;50.72;;;10.98;;
73550;SDS011;61816;53.582;10.096;2022-10-29T03:23:46;46.88;;;10.57;;
73550;SDS011;61816;53.582;10.096;2022-10-29T03:26:11;62.85;;;11.48;;
73550;SDS011;61816;53.582;10.096;2022-10-29T03:28:37;50.72;;;10.95;;
73550;SDS011;61816;53.582;10.096;2022-10-29T03:31:02;60.05;;;12.32;;
73550;SDS011;61816;53.582;10.096;2022-10-29T03:33:27;56.92;;;11.98;;
73550;SDS011;61816;53.582;10.096;2022-10-29T03:36:00;46.72;;;13.15;;
73550;SDS011;61816;53.582;10.096;2022-10-29T03:38:29;46.90;;;10.95;;
73550;SDS011;61816;53.582;10.096;2022-10-29T03:40:55;51.78;;;12.63;;
73550;SDS011;61816;53.582;10.096;2022-10-29T03:43:21;64.55;;;11.80;;
73550;SDS011;61816;53.582;10.096;2022-10-29T03:45:53;60.00;;;13.68;;
73550;SDS011;61816;53.582;10.096;2022-10-29T03:48:21;56.53;;;13.45;;
73550;SDS011;61816;53.582;10.096;2022-10-29T03:50:57;58.60;;;13.80;;
73550;SDS011;61816;53.582;10.096;2022-10-29T03:53:27;56.35;;;13.30;;
73550;SDS011;61816;53.582;10.096;2022-10-29T03:55:53;54.83;;;12.40;;
73550;SDS011;61816;53.582;10.096;2022-10-29T03:58:20;64.07;;;14.65;;
73550;SDS011;61816;53.582;10.096;2022-10-29T04:01:02;61.47;;;14.18;;
73550;SDS011;61816;53.582;10.096;2022-10-29T04:03:31;54.83;;;13.63;;
73550;SDS011;61816;53.582;10.096;2022-10-29T04:05:58;60.33;;;14.25;;
73550;SDS011;61816;53.582;10.096;2022-10-29T04:08:25;47.42;;;13.30;;
73550;SDS011;61816;53.582;10.096;2022-10-29T04:10:50;71.05;;;15.00;;
73550;SDS011;61816;53.582;10.096;2022-10-29T04:13:16;42.50;;;12.13;;
73550;SDS011;61816;53.582;10.096;2022-10-29T04:15:43;45.40;;;11.45;;
73550;SDS011;61816;53.582;10.096;2022-10-29T04:18:08;42.10;;;11.88;;
73550;SDS011;61816;53.582;10.096;2022-10-29T04:20:37;44.20;;;12.07;;
73550;SDS011;61816;53.582;10.096;2022-10-29T04:23:04;51.47;;;11.85;;
73550;SDS011;61816;53.582;10.096;2022-10-29T04:25:30;50.88;;;12.05;;
73550;SDS011;61816;53.582;10.096;2022-10-29T04:27:56;41.47;;;11.52;;
73550;SDS011;61816;53.582;10.096;2022-10-29T04:30:22;54.28;;;12.63;;
73550;SDS011;61816;53.582;10.096;2022-10-29T04:32:48;49.63;;;11.75;;
73550;SDS011;61816;53.582;10.096;2022-10-29T04:35:14;40.63;;;11.70;;
73550;SDS011;61816;53.582;10.096;2022-10-29T04:37:39;45.70;;;12.55;;
73550;SDS011;61816;53.582;10.096;2022-10-29T04:40:05;50.13;;;12.10;;
73550;SDS011;61816;53.582;10.096;2022-10-29T04:42:37;43.45;;;10.93;;
73550;SDS011;61816;53.582;10.096;2022-10-29T04:45:04;46.45;;;11.45;;
73550;SDS011;61816;53.582;10.096;2022-10-29T04:47:30;42.65;;;12.30;;
73550;SDS011;61816;53.582;10.096;2022-10-29T04:49:56;48.30;;;11.68;;
73550;SDS011;61816;53.582;10.096;2022-10-29T04:52:21;49.63;;;13.30;;
73550;SDS011;61816;53.582;10.096;2022-10-29T04:54:47;41.97;;;11.73;;
73550;SDS011;61816;53.582;10.096;2022-10-29T04:57:12;62.38;;;13.18;;
73550;SDS011;61816;53.582;10.096;2022-10-29T04:59:37;45.75;;;10.93;;
73550;SDS011;61816;53.582;10.096;2022-10-29T05:02:03;62.17;;;11.88;;
73550;SDS011;61816;53.582;10.096;2022-10-29T05:04:28;54.20;;;11.65;;
73550;SDS011;61816;53.582;10.096;2022-10-29T05:06:54;47.38;;;12.60;;
73550;SDS011;61816;53.582;10.096;2022-10-29T05:09:19;44.25;;;10.85;;
73550;SDS011;61816;53.582;10.096;2022-10-29T05:11:45;47.92;;;12.45;;
73550;SDS011;61816;53.582;10.096;2022-10-29T05:14:10;43.95;;;11.50;;
73550;SDS011;61816;53.582;10.096;2022-10-29T05:16:35;42.08;;;13.70;;
73550;SDS011;61816;53.582;10.096;2022-10-29T05:19:01;47.20;;;14.88;;
73550;SDS011;61816;53.582;10.096;2022-10-29T05:21:27;47.15;;;15.60;;
73550;SDS011;61816;53.582;10.096;2022-10-29T05:23:53;57.30;;;16.73;;
73550;SDS011;61816;53.582;10.096;2022-10-29T05:26:19;55.28;;;15.77;;
73550;SDS011;61816;53.582;10.096;2022-10-29T05:28:47;49.00;;;16.35;;
73550;SDS011;61816;53.582;10.096;2022-10-29T05:31:13;57.90;;;17.67;;
73550;SDS011;61816;53.582;10.096;2022-10-29T05:33:39;46.13;;;14.25;;
73550;SDS011;61816;53.582;10.096;2022-10-29T05:36:05;48.63;;;15.70;;
73550;SDS011;61816;53.582;10.096;2022-10-29T05:38:30;56.13;;;15.75;;
73550;SDS011;61816;53.582;10.096;2022-10-29T05:40:57;49.28;;;17.67;;
73550;SDS011;61816;53.582;10.096;2022-10-29T05:43:22;55.38;;;16.30;;
73550;SDS011;61816;53.582;10.096;2022-10-29T05:45:48;63.63;;;19.55;;
73550;SDS011;61816;53.582;10.096;2022-10-29T05:48:13;48.55;;;18.83;;
73550;SDS011;61816;53.582;10.096;2022-10-29T05:50:38;59.22;;;19.90;;
73550;SDS011;61816;53.582;10.096;2022-10-29T05:53:05;66.53;;;22.17;;
73550;SDS011;61816;53.582;10.096;2022-10-29T05:55:32;58.05;;;19.33;;
73550;SDS011;61816;53.582;10.096;2022-10-29T05:57:59;62.80;;;19.10;;
73550;SDS011;61816;53.582;10.096;2022-10-29T06:00:27;50.85;;;17.65;;
73550;SDS011;61816;53.582;10.096;2022-10-29T06:02:54;48.13;;;17.45;;
73550;SDS011;61816;53.582;10.096;2022-10-29T06:05:20;53.40;;;16.63;;
73550;SDS011;61816;53.582;10.096;2022-10-29T06:07:51;56.47;;;15.45;;
73550;SDS011;61816;53.582;10.096;2022-10-29T06:10:18;42.97;;;15.25;;
73550;SDS011;61816;53.582;10.096;2022-10-29T06:12:43;53.25;;;15.20;;
73550;SDS011;61816;53.582;10.096;2022-10-29T06:15:09;46.53;;;13.73;;
73550;SDS011;61816;53.582;10.096;2022-10-29T06:17:38;47.00;;;14.52;;
73550;SDS011;61816;53.582;10.096;2022-10-29T06:20:05;56.28;;;15.27;;
73550;SDS011;61816;53.582;10.096;2022-10-29T06:22:31;43.42;;;14.98;;
73550;SDS011;61816;53.582;10.096;2022-10-29T06:24:57;59.92;;;15.30;;
73550;SDS011;61816;53.582;10.096;2022-10-29T06:27:22;42.60;;;13.65;;
73550;SDS011;61816;53.582;10.096;2022-10-29T06:29:47;52.42;;;15.07;;
73550;SDS011;61816;53.582;10.096;2022-10-29T06:32:13;59.22;;;15.23;;
73550;SDS011;61816;53.582;10.096;2022-10-29T06:34:38;51.25;;;13.68;;
73550;SDS011;61816;53.582;10.096;2022-10-29T06:37:04;42.58;;;14.43;;
73550;SDS011;61816;53.582;10.096;2022-10-29T06:39:29;51.92;;;15.35;;
73550;SDS011;61816;53.582;10.096;2022-10-29T06:41:54;56.70;;;15.65;;
73550;SDS011;61816;53.582;10.096;2022-10-29T06:44:20;54.60;;;14.93;;
73550;SDS011;61816;53.582;10.096;2022-10-29T06:46:45;51.83;;;14.82;;
73550;SDS011;61816;53.582;10.096;2022-10-29T06:49:11;55.50;;;15.25;;
73550;SDS011;61816;53.582;10.096;2022-10-29T06:51:36;45.40;;;14.13;;
73550;SDS011;61816;53.582;10.096;2022-10-29T06:54:01;46.83;;;15.98;;
73550;SDS011;61816;53.582;10.096;2022-10-29T06:56:27;43.90;;;15.10;;
73550;SDS011;61816;53.582;10.096;2022-10-29T06:58:52;46.40;;;15.63;;
73550;SDS011;61816;53.582;10.096;2022-10-29T07:01:18;62.53;;;16.63;;
73550;SDS011;61816;53.582;10.096;2022-10-29T07:03:43;44.67;;;18.30;;
73550;SDS011;61816;53.582;10.096;2022-10-29T07:06:08;53.97;;;17.80;;
73550;SDS011;61816;53.582;10.096;2022-10-29T07:08:34;43.72;;;17.67;;
73550;SDS011;61816;53.582;10.096;2022-10-29T07:10:59;43.58;;;16.48;;
73550;SDS011;61816;53.582;10.096;2022-10-29T07:13:26;46.20;;;16.83;;
73550;SDS011;61816;53.582;10.096;2022-10-29T07:15:52;54.05;;;17.48;;
73550;SDS011;61816;53.582;10.096;2022-10-29T07:18:17;50.03;;;17.90;;
73550;SDS011;61816;53.582;10.096;2022-10-29T07:20:43;43.35;;;16.65;;
73550;SDS011;61816;53.582;10.096;2022-10-29T07:23:09;70.97;;;18.95;;
73550;SDS011;61816;53.582;10.096;2022-10-29T07:25:36;51.38;;;19.65;;
73550;SDS011;61816;53.582;10.096;2022-10-29T07:28:03;62.22;;;20.92;;
73550;SDS011;61816;53.582;10.096;2022-10-29T07:30:36;50.03;;;19.13;;
73550;SDS011;61816;53.582;10.096;2022-10-29T07:33:02;56.20;;;19.45;;
73550;SDS011;61816;53.582;10.096;2022-10-29T07:35:28;45.83;;;18.40;;
73550;SDS011;61816;53.582;10.096;2022-10-29T07:37:57;62.75;;;21.60;;
73550;SDS011;61816;53.582;10.096;2022-10-29T07:40:32;61.38;;;21.15;;
73550;SDS011;61816;53.582;10.096;2022-10-29T07:42:58;54.58;;;21.92;;
73550;SDS011;61816;53.582;10.096;2022-10-29T07:45:23;52.25;;;20.90;;
73550;SDS011;61816;53.582;10.096;2022-10-29T07:47:56;51.58;;;22.83;;
73550;SDS011;61816;53.582;10.096;2022-10-29T07:50:23;57.75;;;24.77;;
73550;SDS011;61816;53.582;10.096;2022-10-29T07:52:48;63.60;;;29.95;;
73550;SDS011;61816;53.582;10.096;2022-10-29T07:55:14;62.30;;;30.38;;
73550;SDS011;61816;53.582;10.096;2022-10-29T07:57:39;64.18;;;30.05;;
73550;SDS011;61816;53.582;10.096;2022-10-29T08:00:05;66.47;;;30.58;;
73550;SDS011;61816;53.582;10.096;2022-10-29T08:02:30;72.00;;;30.85;;
73550;SDS011;61816;53.582;10.096;2022-10-29T08:04:56;65.55;;;31.67;;
73550;SDS011;61816;53.582;10.096;2022-10-29T08:07:21;60.20;;;30.10;;
73550;SDS011;61816;53.582;10.096;2022-10-29T08:09:46;72.15;;;35.97;;
73550;SDS011;61816;53.582;10.096;2022-10-29T08:12:12;64.53;;;35.35;;
73550;SDS011;61816;53.582;10.096;2022-10-29T08:14:37;64.60;;;34.08;;
73550;SDS011;61816;53.582;10.096;2022-10-29T08:17:02;61.50;;;35.17;;
73550;SDS011;61816;53.582;10.096;2022-10-29T08:19:28;61.88;;;31.75;;
73550;SDS011;61816;53.582;10.096;2022-10-29T08:21:54;64.13;;;33.75;;
73550;SDS011;61816;53.582;10.096;2022-10-29T08:24:20;64.43;;;35.75;;
73550;SDS011;61816;53.582;10.096;2022-10-29T08:26:45;73.15;;;38.72;;
73550;SDS011;61816;53.582;10.096;2022-10-29T08:29:11;74.20;;;37.08;;
73550;SDS011;61816;53.582;10.096;2022-10-29T08:31:36;66.55;;;36.60;;
73550;SDS011;61816;53.582;10.096;2022-10-29T08:34:01;65.43;;;35.08;;
73550;SDS011;61816;53.582;10.096;2022-10-29T08:36:27;58.17;;;33.22;;
73550;SDS011;61816;53.582;10.096;2022-10-29T08:38:52;58.38;;;30.80;;
73550;SDS011;61816;53.582;10.096;2022-10-29T08:46:32;59.92;;;30.35;;
73550;SDS011;61816;53.582;10.096;2022-10-29T08:49:09;61.70;;;29.08;;
73550;SDS011;61816;53.582;10.096;2022-10-29T08:51:41;65.65;;;30.98;;
73550;SDS011;61816;53.582;10.096;2022-10-29T08:54:12;51.92;;;27.95;;
73550;SDS011;61816;53.582;10.096;2022-10-29T08:56:42;53.25;;;27.77;;
73550;SDS011;61816;53.582;10.096;2022-10-29T08:59:17;59.95;;;26.83;;
73550;SDS011;61816;53.582;10.096;2022-10-29T09:01:45;59.38;;;27.50;;
73550;SDS011;61816;53.582;10.096;2022-10-29T09:04:15;55.88;;;26.65;;
73550;SDS011;61816;53.582;10.096;2022-10-29T09:07:06;64.63;;;29.00;;
73550;SDS011;61816;53.582;10.096;2022-10-29T09:09:55;51.88;;;26.70;;
73550;SDS011;61816;53.582;10.096;2022-10-29T09:17:51;67.55;;;32.28;;
73550;SDS011;61816;53.582;10.096;2022-10-29T09:20:41;73.93;;;34.17;;
73550;SDS011;61816;53.582;10.096;2022-10-29T09:26:22;79.03;;;35.55;;
73550;SDS011;61816;53.582;10.096;2022-10-29T09:31:58;81.63;;;37.85;;
73550;SDS011;61816;53.582;10.096;2022-10-29T09:34:31;86.13;;;38.40;;
73550;SDS011;61816;53.582;10.096;2022-10-29T09:37:01;74.53;;;38.03;;
73550;SDS011;61816;53.582;10.096;2022-10-29T09:39:37;90.10;;;41.83;;
73550;SDS011;61816;53.582;10.096;2022-10-29T09:42:12;71.63;;;34.90;;
73550;SDS011;61816;53.582;10.096;2022-10-29T09:44:49;67.18;;;35.20;;
73550;SDS011;61816;53.582;10.096;2022-10-29T09:50:38;68.07;;;33.72;;
73550;SDS011;61816;53.582;10.096;2022-10-29T09:53:10;60.70;;;31.25;;
73550;SDS011;61816;53.582;10.096;2022-10-29T09:55:40;60.65;;;29.63;;
73550;SDS011;61816;53.582;10.096;2022-10-29T09:58:18;55.15;;;27.83;;
73550;SDS011;61816;53.582;10.096;2022-10-29T10:00:48;58.97;;;30.10;;
73550;SDS011;61816;53.582;10.096;2022-10-29T10:03:20;52.83;;;28.75;;
73550;SDS011;61816;53.582;10.096;2022-10-29T10:05:58;59.00;;;29.55;;
73550;SDS011;61816;53.582;10.096;2022-10-29T10:08:32;54.70;;;27.80;;
73550;SDS011;61816;53.582;10.096;2022-10-29T10:10:59;63.72;;;31.98;;
73550;SDS011;61816;53.582;10.096;2022-10-29T10:13:28;71.95;;;30.45;;
73550;SDS011;61816;53.582;10.096;2022-10-29T10:15:56;55.00;;;28.23;;
73550;SDS011;61816;53.582;10.096;2022-10-29T10:18:44;69.97;;;30.50;;
73550;SDS011;61816;53.582;10.096;2022-10-29T10:21:13;70.00;;;31.10;;
73550;SDS011;61816;53.582;10.096;2022-10-29T10:23:49;56.55;;;27.15;;
73550;SDS011;61816;53.582;10.096;2022-10-29T10:31:29;61.30;;;29.80;;
73550;SDS011;61816;53.582;10.096;2022-10-29T10:33:54;56.40;;;29.27;;
73550;SDS011;61816;53.582;10.096;2022-10-29T10:36:21;56.80;;;28.45;;
73550;SDS011;61816;53.582;10.096;2022-10-29T10:38:49;60.85;;;28.05;;
73550;SDS011;61816;53.582;10.096;2022-10-29T10:41:22;67.57;;;28.30;;
73550;SDS011;61816;53.582;10.096;2022-10-29T10:43:49;57.25;;;28.00;;
73550;SDS011;61816;53.582;10.096;2022-10-29T10:46:22;63.55;;;28.00;;
73550;SDS011;61816;53.582;10.096;2022-10-29T10:48:57;70.82;;;29.05;;
73550;SDS011;61816;53.582;10.096;2022-10-29T10:51:27;65.00;;;28.00;;
73550;SDS011;61816;53.582;10.096;2022-10-29T10:53:54;72.15;;;28.65;;
73550;SDS011;61816;53.582;10.096;2022-10-29T10:56:21;60.75;;;26.33;;
73550;SDS011;61816;53.582;10.096;2022-10-29T11:01:42;55.35;;;22.67;;
73550;SDS011;61816;53.582;10.096;2022-10-29T11:04:18;59.05;;;22.80;;
73550;SDS011;61816;53.582;10.096;2022-10-29T11:06:50;63.00;;;25.15;;
73550;SDS011;61816;53.582;10.096;2022-10-29T11:11:58;56.47;;;22.70;;
73550;SDS011;61816;53.582;10.096;2022-10-29T11:17:24;43.40;;;20.90;;
73550;SDS011;61816;53.582;10.096;2022-10-29T11:19:53;54.17;;;22.85;;
73550;SDS011;61816;53.582;10.096;2022-10-29T11:22:35;54.25;;;20.92;;
73550;SDS011;61816;53.582;10.096;2022-10-29T11:25:12;67.50;;;23.50;;
73550;SDS011;61816;53.582;10.096;2022-10-29T11:30:11;46.08;;;17.40;;
73550;SDS011;61816;53.582;10.096;2022-10-29T11:35:45;49.10;;;16.77;;
73550;SDS011;61816;53.582;10.096;2022-10-29T11:38:30;49.95;;;18.73;;
73550;SDS011;61816;53.582;10.096;2022-10-29T11:41:06;44.40;;;17.23;;
73550;SDS011;61816;53.582;10.096;2022-10-29T11:43:45;47.83;;;16.40;;
73550;SDS011;61816;53.582;10.096;2022-10-29T11:48:46;55.22;;;16.50;;
73550;SDS011;61816;53.582;10.096;2022-10-29T12:00:17;47.10;;;16.15;;
73550;SDS011;61816;53.582;10.096;2022-10-29T12:08:25;46.90;;;16.02;;
73550;SDS011;61816;53.582;10.096;2022-10-29T12:11:15;50.97;;;16.30;;
73550;SDS011;61816;53.582;10.096;2022-10-29T12:14:05;51.67;;;16.83;;
73550;SDS011;61816;53.582;10.096;2022-10-29T12:16:54;59.83;;;16.92;;
73550;SDS011;61816;53.582;10.096;2022-10-29T12:19:49;47.00;;;16.80;;
73550;SDS011;61816;53.582;10.096;2022-10-29T12:33:27;37.58;;;13.48;;
73550;SDS011;61816;53.582;10.096;2022-10-29T12:38:56;38.28;;;12.38;;
73550;SDS011;61816;53.582;10.096;2022-10-29T12:41:23;36.33;;;13.30;;
73550;SDS011;61816;53.582;10.096;2022-10-29T12:43:52;39.03;;;13.52;;
73550;SDS011;61816;53.582;10.096;2022-10-29T12:46:48;44.47;;;15.35;;
73550;SDS011;61816;53.582;10.096;2022-10-29T12:49:48;48.85;;;13.80;;
73550;SDS011;61816;53.582;10.096;2022-10-29T12:55:12;49.88;;;13.75;;
73550;SDS011;61816;53.582;10.096;2022-10-29T12:57:40;40.53;;;12.98;;
73550;SDS011;61816;53.582;10.096;2022-10-29T13:02:47;38.80;;;12.87;;
73550;SDS011;61816;53.582;10.096;2022-10-29T13:05:16;40.83;;;12.95;;
73550;SDS011;61816;53.582;10.096;2022-10-29T13:15:29;35.65;;;11.07;;
73550;SDS011;61816;53.582;10.096;2022-10-29T13:18:34;35.00;;;11.57;;
73550;SDS011;61816;53.582;10.096;2022-10-29T13:21:09;33.13;;;10.73;;
73550;SDS011;61816;53.582;10.096;2022-10-29T13:23:34;42.80;;;12.40;;
73550;SDS011;61816;53.582;10.096;2022-10-29T13:26:05;35.83;;;11.48;;
73550;SDS011;61816;53.582;10.096;2022-10-29T13:35:51;40.15;;;11.95;;
73550;SDS011;61816;53.582;10.096;2022-10-29T13:38:17;37.33;;;10.65;;
73550;SDS011;61816;53.582;10.096;2022-10-29T13:41:06;36.85;;;10.05;;
73550;SDS011;61816;53.582;10.096;2022-10-29T13:43:37;43.00;;;12.02;;
73550;SDS011;61816;53.582;10.096;2022-10-29T13:46:38;42.50;;;11.02;;
73550;SDS011;61816;53.582;10.096;2022-10-29T13:48:55;34.60;;;11.30;;
73550;SDS011;61816;53.582;10.096;2022-10-29T13:51:30;33.15;;;11.73;;
73550;SDS011;61816;53.582;10.096;2022-10-29T13:57:03;45.08;;;11.70;;
73550;SDS011;61816;53.582;10.096;2022-10-29T13:59:40;34.28;;;11.55;;
73550;SDS011;61816;53.582;10.096;2022-10-29T14:08:06;43.08;;;13.18;;
73550;SDS011;61816;53.582;10.096;2022-10-29T14:13:21;46.40;;;12.13;;
73550;SDS011;61816;53.582;10.096;2022-10-29T14:18:30;38.78;;;12.15;;
73550;SDS011;61816;53.582;10.096;2022-10-29T14:20:58;35.13;;;12.32;;
73550;SDS011;61816;53.582;10.096;2022-10-29T14:23:25;33.65;;;11.15;;
73550;SDS011;61816;53.582;10.096;2022-10-29T14:25:53;41.80;;;12.77;;
73550;SDS011;61816;53.582;10.096;2022-10-29T14:28:24;45.13;;;11.48;;
73550;SDS011;61816;53.582;10.096;2022-10-29T14:33:33;41.42;;;11.80;;
73550;SDS011;61816;53.582;10.096;2022-10-29T14:41:03;38.05;;;10.93;;
73550;SDS011;61816;53.582;10.096;2022-10-29T14:43:29;47.60;;;11.65;;
73550;SDS011;61816;53.582;10.096;2022-10-29T14:45:55;49.47;;;11.80;;
73550;SDS011;61816;53.582;10.096;2022-10-29T14:48:35;47.22;;;11.32;;
73550;SDS011;61816;53.582;10.096;2022-10-29T14:51:01;41.60;;;10.10;;
73550;SDS011;61816;53.582;10.096;2022-10-29T14:53:30;35.40;;;11.30;;
73550;SDS011;61816;53.582;10.096;2022-10-29T14:55:58;41.55;;;10.55;;
73550;SDS011;61816;53.582;10.096;2022-10-29T14:58:29;39.50;;;11.90;;
73550;SDS011;61816;53.582;10.096;2022-10-29T15:01:00;44.92;;;11.43;;
73550;SDS011;61816;53.582;10.096;2022-10-29T15:03:30;39.67;;;17.73;;
73550;SDS011;61816;53.582;10.096;2022-10-29T15:06:08;42.13;;;12.25;;
73550;SDS011;61816;53.582;10.096;2022-10-29T15:11:25;45.55;;;12.23;;
73550;SDS011;61816;53.582;10.096;2022-10-29T15:13:57;43.08;;;10.40;;
73550;SDS011;61816;53.582;10.096;2022-10-29T15:16:22;41.35;;;11.35;;
73550;SDS011;61816;53.582;10.096;2022-10-29T15:18:48;50.03;;;12.05;;
73550;SDS011;61816;53.582;10.096;2022-10-29T15:21:21;43.42;;;12.80;;
73550;SDS011;61816;53.582;10.096;2022-10-29T15:23:48;35.17;;;10.50;;
73550;SDS011;61816;53.582;10.096;2022-10-29T15:26:18;34.95;;;12.07;;
73550;SDS011;61816;53.582;10.096;2022-10-29T15:28:46;47.25;;;11.65;;
73550;SDS011;61816;53.582;10.096;2022-10-29T15:31:20;40.92;;;10.48;;
73550;SDS011;61816;53.582;10.096;2022-10-29T15:33:46;39.92;;;11.65;;
73550;SDS011;61816;53.582;10.096;2022-10-29T15:36:15;36.72;;;11.23;;
73550;SDS011;61816;53.582;10.096;2022-10-29T15:41:33;47.22;;;12.48;;
73550;SDS011;61816;53.582;10.096;2022-10-29T15:44:27;46.92;;;10.93;;
73550;SDS011;61816;53.582;10.096;2022-10-29T15:46:58;40.03;;;11.85;;
73550;SDS011;61816;53.582;10.096;2022-10-29T15:49:25;39.75;;;11.15;;
73550;SDS011;61816;53.582;10.096;2022-10-29T15:51:54;37.08;;;10.50;;
73550;SDS011;61816;53.582;10.096;2022-10-29T15:54:21;33.90;;;10.88;;
73550;SDS011;61816;53.582;10.096;2022-10-29T15:56:47;34.30;;;11.35;;
73550;SDS011;61816;53.582;10.096;2022-10-29T15:59:14;49.83;;;12.95;;
73550;SDS011;61816;53.582;10.096;2022-10-29T16:01:43;46.38;;;12.80;;
73550;SDS011;61816;53.582;10.096;2022-10-29T16:04:09;48.03;;;11.77;;
73550;SDS011;61816;53.582;10.096;2022-10-29T16:06:34;38.92;;;12.75;;
73550;SDS011;61816;53.582;10.096;2022-10-29T16:09:00;44.30;;;13.23;;
73550;SDS011;61816;53.582;10.096;2022-10-29T16:11:25;48.13;;;13.30;;
73550;SDS011;61816;53.582;10.096;2022-10-29T16:13:51;40.17;;;12.88;;
73550;SDS011;61816;53.582;10.096;2022-10-29T16:16:19;39.80;;;14.18;;
73550;SDS011;61816;53.582;10.096;2022-10-29T16:18:45;56.45;;;14.30;;
73550;SDS011;61816;53.582;10.096;2022-10-29T16:21:13;41.97;;;14.88;;
73550;SDS011;61816;53.582;10.096;2022-10-29T16:23:41;52.00;;;15.13;;
73550;SDS011;61816;53.582;10.096;2022-10-29T16:26:14;47.70;;;15.32;;
73550;SDS011;61816;53.582;10.096;2022-10-29T16:28:40;44.42;;;16.13;;
73550;SDS011;61816;53.582;10.096;2022-10-29T16:31:13;39.38;;;14.30;;
73550;SDS011;61816;53.582;10.096;2022-10-29T16:33:43;48.75;;;16.10;;
73550;SDS011;61816;53.582;10.096;2022-10-29T16:36:09;47.42;;;15.98;;
73550;SDS011;61816;53.582;10.096;2022-10-29T16:38:34;53.33;;;15.82;;
73550;SDS011;61816;53.582;10.096;2022-10-29T16:40:59;43.25;;;15.20;;
73550;SDS011;61816;53.582;10.096;2022-10-29T16:43:25;59.58;;;16.88;;
73550;SDS011;61816;53.582;10.096;2022-10-29T16:45:50;49.05;;;16.10;;
73550;SDS011;61816;53.582;10.096;2022-10-29T16:48:15;46.55;;;16.83;;
73550;SDS011;61816;53.582;10.096;2022-10-29T16:50:41;50.78;;;16.30;;